sensor_id;sensor_type;location;lat;lon;timestamp;P1;durP1;ratioP1;P2;durP2;ratioP2
15258;SDS011;34462;51.368;12.364;2023-05-21T00:00:40;22.50;;;20.00;;
15258;SDS011;34462;51.368;12.364;2023-05-21T00:03:08;22.63;;;19.85;;
15258;SDS011;34462;51.368;12.364;2023-05-21T00:05:39;21.33;;;19.13;;
15258;SDS011;34462;51.368;12.364;2023-05-21T00:08:07;22.60;;;19.67;;
15258;SDS011;34462;51.368;12.364;2023-05-21T00:10:36;22.92;;;20.38;;
15258;SDS011;34462;51.368;12.364;2023-05-21T00:13:04;25.45;;;20.45;;
15258;SDS011;34462;51.368;12.364;2023-05-21T00:15:35;22.70;;;20.03;;
15258;SDS011;34462;51.368;12.364;2023-05-21T00:18:03;23.27;;;20.10;;
15258;SDS011;34462;51.368;12.364;2023-05-21T00:20:32;22.75;;;19.92;;
15258;SDS011;34462;51.368;12.364;2023-05-21T00:23:00;21.50;;;19.20;;
15258;SDS011;34462;51.368;12.364;2023-05-21T00:25:29;23.92;;;19.83;;
15258;SDS011;34462;51.368;12.364;2023-05-21T00:27:57;25.73;;;21.40;;
15258;SDS011;34462;51.368;12.364;2023-05-21T00:30:25;22.80;;;20.40;;
15258;SDS011;34462;51.368;12.364;2023-05-21T00:32:55;22.83;;;20.33;;
15258;SDS011;34462;51.368;12.364;2023-05-21T00:35:28;22.60;;;20.30;;
15258;SDS011;34462;51.368;12.364;2023-05-21T00:37:56;24.47;;;20.80;;
15258;SDS011;34462;51.368;12.364;2023-05-21T00:40:25;25.10;;;21.80;;
15258;SDS011;34462;51.368;12.364;2023-05-21T00:42:54;24.70;;;20.88;;
15258;SDS011;34462;51.368;12.364;2023-05-21T00:45:22;23.80;;;20.67;;
15258;SDS011;34462;51.368;12.364;2023-05-21T00:47:51;23.27;;;20.80;;
15258;SDS011;34462;51.368;12.364;2023-05-21T00:50:22;22.93;;;19.70;;
15258;SDS011;34462;51.368;12.364;2023-05-21T00:52:51;23.85;;;21.23;;
15258;SDS011;34462;51.368;12.364;2023-05-21T00:55:19;23.05;;;20.58;;
15258;SDS011;34462;51.368;12.364;2023-05-21T00:57:48;24.47;;;20.97;;
15258;SDS011;34462;51.368;12.364;2023-05-21T01:00:16;22.90;;;20.48;;
15258;SDS011;34462;51.368;12.364;2023-05-21T01:02:46;22.90;;;20.50;;
15258;SDS011;34462;51.368;12.364;2023-05-21T01:05:15;24.77;;;21.63;;
15258;SDS011;34462;51.368;12.364;2023-05-21T01:07:44;25.03;;;22.17;;
15258;SDS011;34462;51.368;12.364;2023-05-21T01:10:13;24.90;;;21.53;;
15258;SDS011;34462;51.368;12.364;2023-05-21T01:12:43;24.10;;;21.25;;
15258;SDS011;34462;51.368;12.364;2023-05-21T01:15:12;24.33;;;21.02;;
15258;SDS011;34462;51.368;12.364;2023-05-21T01:17:41;24.10;;;21.33;;
15258;SDS011;34462;51.368;12.364;2023-05-21T01:20:11;24.83;;;21.87;;
15258;SDS011;34462;51.368;12.364;2023-05-21T01:22:48;23.27;;;20.80;;
15258;SDS011;34462;51.368;12.364;2023-05-21T01:25:19;24.70;;;21.30;;
15258;SDS011;34462;51.368;12.364;2023-05-21T01:27:48;25.02;;;21.48;;
15258;SDS011;34462;51.368;12.364;2023-05-21T01:30:17;27.70;;;22.13;;
15258;SDS011;34462;51.368;12.364;2023-05-21T01:32:48;23.63;;;20.42;;
15258;SDS011;34462;51.368;12.364;2023-05-21T01:35:29;23.92;;;21.02;;
15258;SDS011;34462;51.368;12.364;2023-05-21T01:38:06;24.98;;;22.17;;
15258;SDS011;34462;51.368;12.364;2023-05-21T01:40:44;25.07;;;21.70;;
15258;SDS011;34462;51.368;12.364;2023-05-21T01:43:19;24.17;;;21.40;;
15258;SDS011;34462;51.368;12.364;2023-05-21T01:45:50;25.73;;;21.27;;
15258;SDS011;34462;51.368;12.364;2023-05-21T01:48:22;25.20;;;21.90;;
15258;SDS011;34462;51.368;12.364;2023-05-21T01:50:53;25.23;;;22.20;;
15258;SDS011;34462;51.368;12.364;2023-05-21T01:53:25;26.67;;;22.30;;
15258;SDS011;34462;51.368;12.364;2023-05-21T01:55:53;26.23;;;21.93;;
15258;SDS011;34462;51.368;12.364;2023-05-21T01:58:21;26.95;;;22.48;;
15258;SDS011;34462;51.368;12.364;2023-05-21T02:00:50;26.43;;;23.33;;
15258;SDS011;34462;51.368;12.364;2023-05-21T02:03:18;27.43;;;23.43;;
15258;SDS011;34462;51.368;12.364;2023-05-21T02:05:47;27.40;;;22.80;;
15258;SDS011;34462;51.368;12.364;2023-05-21T02:08:17;25.93;;;23.13;;
15258;SDS011;34462;51.368;12.364;2023-05-21T02:10:47;26.70;;;22.57;;
15258;SDS011;34462;51.368;12.364;2023-05-21T02:13:15;28.10;;;22.90;;
15258;SDS011;34462;51.368;12.364;2023-05-21T02:15:45;29.20;;;22.57;;
15258;SDS011;34462;51.368;12.364;2023-05-21T02:18:13;28.60;;;23.93;;
15258;SDS011;34462;51.368;12.364;2023-05-21T02:20:43;28.67;;;23.47;;
15258;SDS011;34462;51.368;12.364;2023-05-21T02:23:11;26.93;;;23.47;;
15258;SDS011;34462;51.368;12.364;2023-05-21T02:25:39;26.57;;;22.57;;
15258;SDS011;34462;51.368;12.364;2023-05-21T02:28:09;26.30;;;22.37;;
15258;SDS011;34462;51.368;12.364;2023-05-21T02:30:38;27.63;;;22.80;;
15258;SDS011;34462;51.368;12.364;2023-05-21T02:33:06;27.10;;;23.50;;
15258;SDS011;34462;51.368;12.364;2023-05-21T02:35:36;27.30;;;23.77;;
15258;SDS011;34462;51.368;12.364;2023-05-21T02:38:04;25.87;;;23.07;;
15258;SDS011;34462;51.368;12.364;2023-05-21T02:40:34;28.10;;;24.03;;
15258;SDS011;34462;51.368;12.364;2023-05-21T02:43:02;31.60;;;24.80;;
15258;SDS011;34462;51.368;12.364;2023-05-21T02:45:32;27.83;;;24.63;;
15258;SDS011;34462;51.368;12.364;2023-05-21T02:48:00;26.97;;;23.07;;
15258;SDS011;34462;51.368;12.364;2023-05-21T02:50:28;26.07;;;22.83;;
15258;SDS011;34462;51.368;12.364;2023-05-21T02:52:56;28.27;;;23.43;;
15258;SDS011;34462;51.368;12.364;2023-05-21T02:55:25;28.37;;;23.63;;
15258;SDS011;34462;51.368;12.364;2023-05-21T02:57:53;25.83;;;23.07;;
15258;SDS011;34462;51.368;12.364;2023-05-21T03:00:21;27.33;;;22.90;;
15258;SDS011;34462;51.368;12.364;2023-05-21T03:02:51;28.30;;;23.93;;
15258;SDS011;34462;51.368;12.364;2023-05-21T03:05:19;28.60;;;24.90;;
15258;SDS011;34462;51.368;12.364;2023-05-21T03:07:48;28.10;;;24.37;;
15258;SDS011;34462;51.368;12.364;2023-05-21T03:10:16;28.50;;;24.63;;
15258;SDS011;34462;51.368;12.364;2023-05-21T03:12:44;28.57;;;23.93;;
15258;SDS011;34462;51.368;12.364;2023-05-21T03:15:13;27.57;;;22.83;;
15258;SDS011;34462;51.368;12.364;2023-05-21T03:17:42;28.53;;;24.73;;
15258;SDS011;34462;51.368;12.364;2023-05-21T03:20:11;26.77;;;23.37;;
15258;SDS011;34462;51.368;12.364;2023-05-21T03:22:42;27.33;;;23.37;;
15258;SDS011;34462;51.368;12.364;2023-05-21T03:25:11;30.33;;;24.80;;
15258;SDS011;34462;51.368;12.364;2023-05-21T03:27:39;28.73;;;24.27;;
15258;SDS011;34462;51.368;12.364;2023-05-21T03:30:08;27.63;;;23.90;;
15258;SDS011;34462;51.368;12.364;2023-05-21T03:32:37;28.73;;;24.47;;
15258;SDS011;34462;51.368;12.364;2023-05-21T03:35:06;32.00;;;24.47;;
15258;SDS011;34462;51.368;12.364;2023-05-21T03:37:36;29.83;;;25.00;;
15258;SDS011;34462;51.368;12.364;2023-05-21T03:40:05;27.70;;;23.27;;
15258;SDS011;34462;51.368;12.364;2023-05-21T03:42:34;28.93;;;24.23;;
15258;SDS011;34462;51.368;12.364;2023-05-21T03:45:03;28.87;;;24.40;;
15258;SDS011;34462;51.368;12.364;2023-05-21T03:47:33;29.00;;;23.50;;
15258;SDS011;34462;51.368;12.364;2023-05-21T03:50:02;28.30;;;24.63;;
15258;SDS011;34462;51.368;12.364;2023-05-21T03:52:31;28.93;;;24.60;;
15258;SDS011;34462;51.368;12.364;2023-05-21T03:55:01;29.83;;;24.50;;
15258;SDS011;34462;51.368;12.364;2023-05-21T03:57:29;25.85;;;23.00;;
15258;SDS011;34462;51.368;12.364;2023-05-21T03:59:57;27.27;;;23.97;;
15258;SDS011;34462;51.368;12.364;2023-05-21T04:02:25;34.43;;;24.07;;
15258;SDS011;34462;51.368;12.364;2023-05-21T04:04:54;28.47;;;23.70;;
15258;SDS011;34462;51.368;12.364;2023-05-21T04:07:22;28.93;;;23.60;;
15258;SDS011;34462;51.368;12.364;2023-05-21T04:09:52;27.07;;;23.30;;
15258;SDS011;34462;51.368;12.364;2023-05-21T04:12:21;27.13;;;24.13;;
15258;SDS011;34462;51.368;12.364;2023-05-21T04:14:50;26.57;;;22.97;;
15258;SDS011;34462;51.368;12.364;2023-05-21T04:17:18;29.03;;;24.13;;
15258;SDS011;34462;51.368;12.364;2023-05-21T04:19:46;29.33;;;23.67;;
15258;SDS011;34462;51.368;12.364;2023-05-21T04:22:15;27.98;;;24.08;;
15258;SDS011;34462;51.368;12.364;2023-05-21T04:24:43;26.65;;;22.60;;
15258;SDS011;34462;51.368;12.364;2023-05-21T04:27:11;28.05;;;24.15;;
15258;SDS011;34462;51.368;12.364;2023-05-21T04:29:43;24.98;;;21.85;;
15258;SDS011;34462;51.368;12.364;2023-05-21T04:32:11;27.63;;;22.63;;
15258;SDS011;34462;51.368;12.364;2023-05-21T04:34:40;25.70;;;22.90;;
15258;SDS011;34462;51.368;12.364;2023-05-21T04:37:08;25.65;;;22.95;;
15258;SDS011;34462;51.368;12.364;2023-05-21T04:39:37;26.90;;;23.25;;
15258;SDS011;34462;51.368;12.364;2023-05-21T04:42:07;24.73;;;22.10;;
15258;SDS011;34462;51.368;12.364;2023-05-21T04:44:36;28.17;;;22.90;;
15258;SDS011;34462;51.368;12.364;2023-05-21T04:47:06;26.53;;;23.17;;
15258;SDS011;34462;51.368;12.364;2023-05-21T04:49:35;27.75;;;22.17;;
15258;SDS011;34462;51.368;12.364;2023-05-21T04:52:03;24.95;;;22.20;;
15258;SDS011;34462;51.368;12.364;2023-05-21T04:54:33;24.70;;;21.83;;
15258;SDS011;34462;51.368;12.364;2023-05-21T04:57:01;26.52;;;22.73;;
15258;SDS011;34462;51.368;12.364;2023-05-21T04:59:30;25.63;;;22.33;;
15258;SDS011;34462;51.368;12.364;2023-05-21T05:01:58;25.60;;;21.90;;
15258;SDS011;34462;51.368;12.364;2023-05-21T05:04:27;27.17;;;23.17;;
15258;SDS011;34462;51.368;12.364;2023-05-21T05:06:55;26.67;;;23.02;;
15258;SDS011;34462;51.368;12.364;2023-05-21T05:09:24;24.30;;;21.67;;
15258;SDS011;34462;51.368;12.364;2023-05-21T05:11:52;25.05;;;21.75;;
15258;SDS011;34462;51.368;12.364;2023-05-21T05:14:20;24.52;;;21.73;;
15258;SDS011;34462;51.368;12.364;2023-05-21T05:16:48;23.88;;;21.30;;
15258;SDS011;34462;51.368;12.364;2023-05-21T05:19:17;26.00;;;22.52;;
15258;SDS011;34462;51.368;12.364;2023-05-21T05:21:46;24.95;;;21.92;;
15258;SDS011;34462;51.368;12.364;2023-05-21T05:24:14;26.73;;;22.02;;
15258;SDS011;34462;51.368;12.364;2023-05-21T05:26:42;25.35;;;22.63;;
15258;SDS011;34462;51.368;12.364;2023-05-21T05:29:12;25.08;;;22.40;;
15258;SDS011;34462;51.368;12.364;2023-05-21T05:31:40;28.15;;;22.70;;
15258;SDS011;34462;51.368;12.364;2023-05-21T05:34:08;26.63;;;22.75;;
15258;SDS011;34462;51.368;12.364;2023-05-21T05:36:36;25.30;;;22.58;;
15258;SDS011;34462;51.368;12.364;2023-05-21T05:39:06;23.10;;;20.70;;
15258;SDS011;34462;51.368;12.364;2023-05-21T05:41:34;26.75;;;22.13;;
15258;SDS011;34462;51.368;12.364;2023-05-21T05:44:02;25.50;;;21.63;;
15258;SDS011;34462;51.368;12.364;2023-05-21T05:46:31;25.17;;;21.90;;
15258;SDS011;34462;51.368;12.364;2023-05-21T05:48:59;24.15;;;21.40;;
15258;SDS011;34462;51.368;12.364;2023-05-21T05:51:27;25.40;;;22.10;;
15258;SDS011;34462;51.368;12.364;2023-05-21T05:53:56;24.42;;;21.80;;
15258;SDS011;34462;51.368;12.364;2023-05-21T05:56:25;24.35;;;21.60;;
15258;SDS011;34462;51.368;12.364;2023-05-21T05:58:53;23.48;;;21.00;;
15258;SDS011;34462;51.368;12.364;2023-05-21T06:01:21;23.20;;;20.83;;
15258;SDS011;34462;51.368;12.364;2023-05-21T06:03:51;22.70;;;20.20;;
15258;SDS011;34462;51.368;12.364;2023-05-21T06:06:19;22.17;;;19.85;;
15258;SDS011;34462;51.368;12.364;2023-05-21T06:08:47;23.05;;;20.63;;
15258;SDS011;34462;51.368;12.364;2023-05-21T06:11:15;21.83;;;18.92;;
15258;SDS011;34462;51.368;12.364;2023-05-21T06:13:45;22.58;;;20.27;;
15258;SDS011;34462;51.368;12.364;2023-05-21T06:16:13;21.38;;;19.13;;
15258;SDS011;34462;51.368;12.364;2023-05-21T06:18:42;20.40;;;18.38;;
15258;SDS011;34462;51.368;12.364;2023-05-21T06:21:10;22.02;;;19.73;;
15258;SDS011;34462;51.368;12.364;2023-05-21T06:23:38;22.02;;;19.83;;
15258;SDS011;34462;51.368;12.364;2023-05-21T06:26:06;22.50;;;20.20;;
15258;SDS011;34462;51.368;12.364;2023-05-21T06:28:34;21.70;;;19.40;;
15258;SDS011;34462;51.368;12.364;2023-05-21T06:31:04;22.45;;;20.15;;
15258;SDS011;34462;51.368;12.364;2023-05-21T06:33:32;21.83;;;19.50;;
15258;SDS011;34462;51.368;12.364;2023-05-21T06:36:00;21.65;;;19.45;;
15258;SDS011;34462;51.368;12.364;2023-05-21T06:38:29;22.00;;;18.63;;
15258;SDS011;34462;51.368;12.364;2023-05-21T06:40:57;21.48;;;19.30;;
15258;SDS011;34462;51.368;12.364;2023-05-21T06:43:25;22.27;;;18.98;;
15258;SDS011;34462;51.368;12.364;2023-05-21T06:45:53;20.63;;;18.63;;
15258;SDS011;34462;51.368;12.364;2023-05-21T06:48:23;20.88;;;18.67;;
15258;SDS011;34462;51.368;12.364;2023-05-21T06:50:51;20.27;;;18.27;;
15258;SDS011;34462;51.368;12.364;2023-05-21T06:53:19;22.30;;;19.42;;
15258;SDS011;34462;51.368;12.364;2023-05-21T06:55:47;21.38;;;19.08;;
15258;SDS011;34462;51.368;12.364;2023-05-21T06:58:18;20.73;;;18.70;;
15258;SDS011;34462;51.368;12.364;2023-05-21T07:00:47;21.20;;;19.10;;
15258;SDS011;34462;51.368;12.364;2023-05-21T07:03:15;22.30;;;19.98;;
15258;SDS011;34462;51.368;12.364;2023-05-21T07:05:45;21.80;;;19.67;;
15258;SDS011;34462;51.368;12.364;2023-05-21T07:08:13;22.10;;;19.77;;
15258;SDS011;34462;51.368;12.364;2023-05-21T07:10:42;22.42;;;19.95;;
15258;SDS011;34462;51.368;12.364;2023-05-21T07:13:10;21.60;;;19.27;;
15258;SDS011;34462;51.368;12.364;2023-05-21T07:15:38;22.80;;;20.48;;
15258;SDS011;34462;51.368;12.364;2023-05-21T07:18:06;20.55;;;18.45;;
15258;SDS011;34462;51.368;12.364;2023-05-21T07:20:34;23.27;;;19.73;;
15258;SDS011;34462;51.368;12.364;2023-05-21T07:23:04;20.55;;;18.45;;
15258;SDS011;34462;51.368;12.364;2023-05-21T07:25:32;21.05;;;19.00;;
15258;SDS011;34462;51.368;12.364;2023-05-21T07:28:00;21.10;;;19.00;;
15258;SDS011;34462;51.368;12.364;2023-05-21T07:30:31;20.83;;;18.58;;
15258;SDS011;34462;51.368;12.364;2023-05-21T07:32:59;20.15;;;18.05;;
15258;SDS011;34462;51.368;12.364;2023-05-21T07:35:28;20.42;;;18.35;;
15258;SDS011;34462;51.368;12.364;2023-05-21T07:37:56;20.05;;;18.08;;
15258;SDS011;34462;51.368;12.364;2023-05-21T07:40:25;21.52;;;19.23;;
15258;SDS011;34462;51.368;12.364;2023-05-21T07:42:53;19.10;;;17.20;;
15258;SDS011;34462;51.368;12.364;2023-05-21T07:45:22;19.67;;;17.77;;
15258;SDS011;34462;51.368;12.364;2023-05-21T07:47:50;20.20;;;18.20;;
15258;SDS011;34462;51.368;12.364;2023-05-21T07:50:18;19.45;;;17.45;;
15258;SDS011;34462;51.368;12.364;2023-05-21T07:52:47;19.48;;;17.58;;
15258;SDS011;34462;51.368;12.364;2023-05-21T07:55:15;21.40;;;19.13;;
15258;SDS011;34462;51.368;12.364;2023-05-21T07:57:45;19.58;;;17.67;;
15258;SDS011;34462;51.368;12.364;2023-05-21T08:00:13;20.42;;;18.33;;
15258;SDS011;34462;51.368;12.364;2023-05-21T08:02:42;19.75;;;17.75;;
15258;SDS011;34462;51.368;12.364;2023-05-21T08:05:10;19.52;;;17.63;;
15258;SDS011;34462;51.368;12.364;2023-05-21T08:07:39;18.70;;;16.83;;
15258;SDS011;34462;51.368;12.364;2023-05-21T08:10:07;18.73;;;16.83;;
15258;SDS011;34462;51.368;12.364;2023-05-21T08:12:35;19.40;;;17.45;;
15258;SDS011;34462;51.368;12.364;2023-05-21T08:15:05;19.65;;;17.65;;
15258;SDS011;34462;51.368;12.364;2023-05-21T08:17:34;18.42;;;16.63;;
15258;SDS011;34462;51.368;12.364;2023-05-21T08:20:03;18.50;;;16.70;;
15258;SDS011;34462;51.368;12.364;2023-05-21T08:22:32;19.40;;;17.50;;
15258;SDS011;34462;51.368;12.364;2023-05-21T08:25:00;19.15;;;17.15;;
15258;SDS011;34462;51.368;12.364;2023-05-21T08:27:28;18.20;;;16.40;;
15258;SDS011;34462;51.368;12.364;2023-05-21T08:29:56;19.60;;;17.70;;
15258;SDS011;34462;51.368;12.364;2023-05-21T08:32:26;19.45;;;17.55;;
15258;SDS011;34462;51.368;12.364;2023-05-21T08:34:54;18.90;;;17.10;;
15258;SDS011;34462;51.368;12.364;2023-05-21T08:37:22;18.48;;;16.73;;
15258;SDS011;34462;51.368;12.364;2023-05-21T08:39:50;18.63;;;16.65;;
15258;SDS011;34462;51.368;12.364;2023-05-21T08:42:22;17.52;;;15.93;;
15258;SDS011;34462;51.368;12.364;2023-05-21T08:45:09;17.60;;;15.82;;
15258;SDS011;34462;51.368;12.364;2023-05-21T08:47:41;18.30;;;16.60;;
15258;SDS011;34462;51.368;12.364;2023-05-21T08:50:12;18.00;;;16.10;;
15258;SDS011;34462;51.368;12.364;2023-05-21T08:52:44;17.90;;;16.02;;
15258;SDS011;34462;51.368;12.364;2023-05-21T08:55:13;18.45;;;16.65;;
15258;SDS011;34462;51.368;12.364;2023-05-21T08:57:43;17.67;;;15.98;;
15258;SDS011;34462;51.368;12.364;2023-05-21T09:00:11;18.45;;;16.63;;
15258;SDS011;34462;51.368;12.364;2023-05-21T09:02:42;17.23;;;15.52;;
15258;SDS011;34462;51.368;12.364;2023-05-21T09:05:11;17.45;;;15.85;;
15258;SDS011;34462;51.368;12.364;2023-05-21T09:07:42;18.27;;;16.58;;
15258;SDS011;34462;51.368;12.364;2023-05-21T09:10:18;17.88;;;16.05;;
15258;SDS011;34462;51.368;12.364;2023-05-21T09:12:53;17.65;;;15.95;;
15258;SDS011;34462;51.368;12.364;2023-05-21T09:15:21;17.75;;;15.98;;
15258;SDS011;34462;51.368;12.364;2023-05-21T09:17:51;17.13;;;15.50;;
15258;SDS011;34462;51.368;12.364;2023-05-21T09:20:22;17.15;;;15.45;;
15258;SDS011;34462;51.368;12.364;2023-05-21T09:22:52;17.45;;;15.82;;
15258;SDS011;34462;51.368;12.364;2023-05-21T09:25:21;17.33;;;15.65;;
15258;SDS011;34462;51.368;12.364;2023-05-21T09:27:53;18.70;;;16.73;;
15258;SDS011;34462;51.368;12.364;2023-05-21T09:30:23;17.40;;;15.80;;
15258;SDS011;34462;51.368;12.364;2023-05-21T09:32:57;18.05;;;16.30;;
15258;SDS011;34462;51.368;12.364;2023-05-21T09:35:26;18.40;;;16.58;;
15258;SDS011;34462;51.368;12.364;2023-05-21T09:37:55;17.58;;;15.90;;
15258;SDS011;34462;51.368;12.364;2023-05-21T09:40:23;17.35;;;15.55;;
15258;SDS011;34462;51.368;12.364;2023-05-21T09:42:52;16.83;;;15.13;;
15258;SDS011;34462;51.368;12.364;2023-05-21T09:45:22;17.55;;;15.77;;
15258;SDS011;34462;51.368;12.364;2023-05-21T09:47:52;16.90;;;15.40;;
15258;SDS011;34462;51.368;12.364;2023-05-21T09:50:23;17.30;;;15.68;;
15258;SDS011;34462;51.368;12.364;2023-05-21T09:52:53;15.88;;;14.45;;
15258;SDS011;34462;51.368;12.364;2023-05-21T09:55:23;18.23;;;15.35;;
15258;SDS011;34462;51.368;12.364;2023-05-21T09:57:53;17.50;;;15.90;;
15258;SDS011;34462;51.368;12.364;2023-05-21T10:00:21;17.17;;;15.52;;
15258;SDS011;34462;51.368;12.364;2023-05-21T10:02:53;15.95;;;14.45;;
15258;SDS011;34462;51.368;12.364;2023-05-21T10:05:24;16.00;;;14.40;;
15258;SDS011;34462;51.368;12.364;2023-05-21T10:07:55;16.52;;;14.93;;
15258;SDS011;34462;51.368;12.364;2023-05-21T10:10:29;16.05;;;14.50;;
15258;SDS011;34462;51.368;12.364;2023-05-21T10:12:59;16.27;;;14.65;;
15258;SDS011;34462;51.368;12.364;2023-05-21T10:15:34;16.52;;;14.93;;
15258;SDS011;34462;51.368;12.364;2023-05-21T10:18:05;16.20;;;14.80;;
15258;SDS011;34462;51.368;12.364;2023-05-21T10:20:38;16.90;;;15.30;;
15258;SDS011;34462;51.368;12.364;2023-05-21T10:23:07;17.38;;;15.70;;
15258;SDS011;34462;51.368;12.364;2023-05-21T10:25:38;16.27;;;14.68;;
15258;SDS011;34462;51.368;12.364;2023-05-21T10:28:07;14.55;;;13.10;;
15258;SDS011;34462;51.368;12.364;2023-05-21T10:30:36;15.70;;;13.68;;
15258;SDS011;34462;51.368;12.364;2023-05-21T10:33:05;14.82;;;13.45;;
15258;SDS011;34462;51.368;12.364;2023-05-21T10:35:34;15.65;;;14.10;;
15258;SDS011;34462;51.368;12.364;2023-05-21T10:38:07;15.20;;;13.60;;
15258;SDS011;34462;51.368;12.364;2023-05-21T10:40:36;14.98;;;13.63;;
15258;SDS011;34462;51.368;12.364;2023-05-21T10:43:12;15.10;;;13.68;;
15258;SDS011;34462;51.368;12.364;2023-05-21T10:46:09;14.85;;;13.38;;
15258;SDS011;34462;51.368;12.364;2023-05-21T10:49:37;15.05;;;13.55;;
15258;SDS011;34462;51.368;12.364;2023-05-21T10:52:42;14.90;;;13.60;;
15258;SDS011;34462;51.368;12.364;2023-05-21T10:55:35;15.45;;;13.80;;
15258;SDS011;34462;51.368;12.364;2023-05-21T11:01:58;13.88;;;12.55;;
15258;SDS011;34462;51.368;12.364;2023-05-21T11:04:27;14.93;;;13.63;;
15258;SDS011;34462;51.368;12.364;2023-05-21T11:06:57;15.05;;;13.52;;
15258;SDS011;34462;51.368;12.364;2023-05-21T11:09:27;14.88;;;13.43;;
15258;SDS011;34462;51.368;12.364;2023-05-21T11:11:56;15.10;;;13.60;;
15258;SDS011;34462;51.368;12.364;2023-05-21T11:14:27;14.75;;;13.10;;
15258;SDS011;34462;51.368;12.364;2023-05-21T11:17:00;13.85;;;12.65;;
15258;SDS011;34462;51.368;12.364;2023-05-21T11:19:33;13.20;;;11.90;;
15258;SDS011;34462;51.368;12.364;2023-05-21T11:22:04;11.55;;;10.52;;
15258;SDS011;34462;51.368;12.364;2023-05-21T11:24:39;13.63;;;12.23;;
15258;SDS011;34462;51.368;12.364;2023-05-21T11:27:07;13.77;;;12.43;;
15258;SDS011;34462;51.368;12.364;2023-05-21T11:29:41;12.73;;;11.45;;
15258;SDS011;34462;51.368;12.364;2023-05-21T11:32:12;12.30;;;11.20;;
15258;SDS011;34462;51.368;12.364;2023-05-21T11:34:43;12.48;;;11.40;;
15258;SDS011;34462;51.368;12.364;2023-05-21T11:37:22;11.68;;;10.68;;
15258;SDS011;34462;51.368;12.364;2023-05-21T11:42:51;12.10;;;11.00;;
15258;SDS011;34462;51.368;12.364;2023-05-21T11:45:21;12.40;;;10.73;;
15258;SDS011;34462;51.368;12.364;2023-05-21T11:47:54;12.07;;;10.95;;
15258;SDS011;34462;51.368;12.364;2023-05-21T11:50:24;11.82;;;10.75;;
15258;SDS011;34462;51.368;12.364;2023-05-21T11:52:52;12.18;;;11.02;;
15258;SDS011;34462;51.368;12.364;2023-05-21T11:55:22;12.90;;;11.70;;
15258;SDS011;34462;51.368;12.364;2023-05-21T11:57:52;12.50;;;11.50;;
15258;SDS011;34462;51.368;12.364;2023-05-21T12:00:21;12.63;;;11.48;;
15258;SDS011;34462;51.368;12.364;2023-05-21T12:02:50;13.35;;;12.15;;
15258;SDS011;34462;51.368;12.364;2023-05-21T12:05:22;13.32;;;12.07;;
15258;SDS011;34462;51.368;12.364;2023-05-21T12:07:50;13.30;;;12.00;;
15258;SDS011;34462;51.368;12.364;2023-05-21T12:10:20;13.98;;;12.70;;
15258;SDS011;34462;51.368;12.364;2023-05-21T12:12:50;13.30;;;12.15;;
15258;SDS011;34462;51.368;12.364;2023-05-21T12:15:22;15.55;;;12.63;;
15258;SDS011;34462;51.368;12.364;2023-05-21T12:17:53;13.50;;;12.25;;
15258;SDS011;34462;51.368;12.364;2023-05-21T12:20:24;13.00;;;11.80;;
15258;SDS011;34462;51.368;12.364;2023-05-21T12:22:55;13.35;;;11.50;;
15258;SDS011;34462;51.368;12.364;2023-05-21T12:25:25;13.15;;;11.77;;
15258;SDS011;34462;51.368;12.364;2023-05-21T12:27:56;12.30;;;11.20;;
15258;SDS011;34462;51.368;12.364;2023-05-21T12:30:26;12.43;;;11.32;;
15258;SDS011;34462;51.368;12.364;2023-05-21T12:32:56;13.55;;;12.25;;
15258;SDS011;34462;51.368;12.364;2023-05-21T12:35:27;12.82;;;11.77;;
15258;SDS011;34462;51.368;12.364;2023-05-21T12:37:59;11.93;;;10.90;;
15258;SDS011;34462;51.368;12.364;2023-05-21T12:40:34;12.20;;;11.10;;
15258;SDS011;34462;51.368;12.364;2023-05-21T12:43:06;12.70;;;11.50;;
15258;SDS011;34462;51.368;12.364;2023-05-21T12:45:35;12.63;;;11.27;;
15258;SDS011;34462;51.368;12.364;2023-05-21T12:48:06;11.93;;;10.93;;
15258;SDS011;34462;51.368;12.364;2023-05-21T12:50:37;12.27;;;11.07;;
15258;SDS011;34462;51.368;12.364;2023-05-21T12:53:07;11.57;;;10.65;;
15258;SDS011;34462;51.368;12.364;2023-05-21T12:55:37;12.32;;;11.23;;
15258;SDS011;34462;51.368;12.364;2023-05-21T12:58:06;11.95;;;10.85;;
15258;SDS011;34462;51.368;12.364;2023-05-21T13:00:35;11.93;;;10.93;;
15258;SDS011;34462;51.368;12.364;2023-05-21T13:03:04;11.80;;;10.63;;
15258;SDS011;34462;51.368;12.364;2023-05-21T13:05:32;12.40;;;11.30;;
15258;SDS011;34462;51.368;12.364;2023-05-21T13:08:01;12.77;;;11.68;;
15258;SDS011;34462;51.368;12.364;2023-05-21T13:10:29;12.93;;;11.60;;
15258;SDS011;34462;51.368;12.364;2023-05-21T13:12:57;13.02;;;11.93;;
15258;SDS011;34462;51.368;12.364;2023-05-21T13:15:28;13.13;;;11.90;;
15258;SDS011;34462;51.368;12.364;2023-05-21T13:17:56;12.27;;;11.18;;
15258;SDS011;34462;51.368;12.364;2023-05-21T13:20:26;11.88;;;10.68;;
15258;SDS011;34462;51.368;12.364;2023-05-21T13:22:54;12.60;;;11.30;;
15258;SDS011;34462;51.368;12.364;2023-05-21T13:25:23;12.55;;;11.38;;
15258;SDS011;34462;51.368;12.364;2023-05-21T13:27:54;11.55;;;10.48;;
15258;SDS011;34462;51.368;12.364;2023-05-21T13:30:23;12.32;;;11.13;;
15258;SDS011;34462;51.368;12.364;2023-05-21T13:32:53;13.27;;;11.95;;
15258;SDS011;34462;51.368;12.364;2023-05-21T13:35:21;12.65;;;11.55;;
15258;SDS011;34462;51.368;12.364;2023-05-21T13:37:49;12.77;;;11.40;;
15258;SDS011;34462;51.368;12.364;2023-05-21T13:40:18;12.75;;;11.55;;
15258;SDS011;34462;51.368;12.364;2023-05-21T13:42:48;12.45;;;11.25;;
15258;SDS011;34462;51.368;12.364;2023-05-21T13:45:17;13.07;;;11.95;;
15258;SDS011;34462;51.368;12.364;2023-05-21T13:47:47;12.50;;;11.20;;
15258;SDS011;34462;51.368;12.364;2023-05-21T13:50:16;12.02;;;10.93;;
15258;SDS011;34462;51.368;12.364;2023-05-21T13:52:44;13.10;;;11.90;;
15258;SDS011;34462;51.368;12.364;2023-05-21T13:55:13;12.63;;;11.43;;
15258;SDS011;34462;51.368;12.364;2023-05-21T13:57:41;13.10;;;11.90;;
15258;SDS011;34462;51.368;12.364;2023-05-21T14:00:11;13.38;;;11.90;;
15258;SDS011;34462;51.368;12.364;2023-05-21T14:02:41;13.65;;;12.05;;
15258;SDS011;34462;51.368;12.364;2023-05-21T14:05:10;13.32;;;10.98;;
15258;SDS011;34462;51.368;12.364;2023-05-21T14:07:40;12.73;;;11.45;;
15258;SDS011;34462;51.368;12.364;2023-05-21T14:10:08;12.35;;;10.93;;
15258;SDS011;34462;51.368;12.364;2023-05-21T14:12:37;11.15;;;10.05;;
15258;SDS011;34462;51.368;12.364;2023-05-21T14:15:06;10.30;;;9.25;;
15258;SDS011;34462;51.368;12.364;2023-05-21T14:17:35;10.35;;;9.45;;
15258;SDS011;34462;51.368;12.364;2023-05-21T14:20:07;10.65;;;9.65;;
15258;SDS011;34462;51.368;12.364;2023-05-21T14:22:36;10.50;;;9.50;;
15258;SDS011;34462;51.368;12.364;2023-05-21T14:25:06;10.63;;;9.43;;
15258;SDS011;34462;51.368;12.364;2023-05-21T14:27:35;10.27;;;9.35;;
15258;SDS011;34462;51.368;12.364;2023-05-21T14:30:04;10.68;;;9.57;;